Time;durP1;ratioP1;P1;durP2;ratioP2;P2;SDS_P1;SDS_P2;PMS_P1;PMS_P2;Temp;Humidity;BMP_temperature;BMP_pressure;BME280_temperature;BME280_humidity;BME280_pressure;Samples;Min_cycle;Max_cycle;Signal;HPM_P1;HPM_P2
2023/08/28 00:01:00;;;;;;;1.63;1.53;;;14.50;99.90;;;;;;5089344;28;20993;-75
2023/08/28 00:03:27;;;;;;;1.47;1.33;;;14.60;99.90;;;;;;5089367;28;20620;-76
2023/08/28 00:05:55;;;;;;;1.90;1.77;;;14.60;99.90;;;;;;5089627;28;20630;-76
2023/08/28 00:08:22;;;;;;;2.23;2.03;;;14.60;99.90;;;;;;5089832;28;21172;-76
2023/08/28 00:10:49;;;;;;;2.00;1.63;;;14.60;99.90;;;;;;5089540;28;20625;-76
2023/08/28 00:13:16;;;;;;;1.63;1.53;;;14.60;99.90;;;;;;5089916;28;20620;-76
2023/08/28 00:15:42;;;;;;;1.70;1.60;;;14.60;99.90;;;;;;5089999;28;21082;-76
2023/08/28 00:18:09;;;;;;;4.70;2.57;;;14.60;99.90;;;;;;5089697;28;20624;-76
2023/08/28 00:20:36;;;;;;;2.40;1.63;;;14.50;99.90;;;;;;5089944;28;21257;-76
2023/08/28 00:23:04;;;;;;;2.27;2.17;;;14.50;99.90;;;;;;5089773;28;20639;-76
2023/08/28 00:25:31;;;;;;;1.77;1.67;;;14.40;99.90;;;;;;5089694;28;20634;-76
2023/08/28 00:27:58;;;;;;;1.90;1.80;;;14.40;99.90;;;;;;5090016;28;20667;-76
2023/08/28 00:30:25;;;;;;;2.20;2.00;;;14.30;99.90;;;;;;5089137;28;20631;-76
2023/08/28 00:32:52;;;;;;;2.10;1.90;;;14.30;99.90;;;;;;5090493;28;20638;-76
2023/08/28 00:35:19;;;;;;;1.77;1.67;;;14.40;99.90;;;;;;5089645;28;20736;-76
2023/08/28 00:37:46;;;;;;;1.57;1.47;;;14.40;99.90;;;;;;5089230;28;21269;-76
2023/08/28 00:40:16;;;;;;;2.50;1.67;;;14.40;99.90;;;;;;5088534;28;20624;-76
2023/08/28 00:42:43;;;;;;;1.10;1.10;;;14.40;99.90;;;;;;5089451;28;21781;-76
2023/08/28 00:45:10;;;;;;;1.40;1.30;;;14.40;99.90;;;;;;5089684;28;20625;-76
2023/08/28 00:47:37;;;;;;;3.00;1.97;;;14.40;99.90;;;;;;5089698;28;20647;-76
2023/08/28 00:50:05;;;;;;;1.60;1.50;;;14.40;99.90;;;;;;5088551;28;20688;-76
2023/08/28 00:52:33;;;;;;;3.20;2.20;;;14.40;99.90;;;;;;5089097;28;20849;-76
2023/08/28 00:54:59;;;;;;;2.03;1.70;;;14.50;99.90;;;;;;5089851;28;20729;-76
2023/08/28 00:57:28;;;;;;;1.90;1.40;;;14.50;99.90;;;;;;5089273;28;20631;-76
2023/08/28 00:59:55;;;;;;;1.57;1.47;;;14.40;99.90;;;;;;5088635;28;20620;-76
2023/08/28 01:02:22;;;;;;;2.23;1.87;;;14.40;99.90;;;;;;5086482;28;20632;-76
2023/08/28 01:04:49;;;;;;;1.93;1.67;;;14.50;99.90;;;;;;5088410;28;21349;-76
2023/08/28 01:07:22;;;;;;;1.90;1.80;;;14.40;99.90;;;;;;5087919;28;20667;-76
2023/08/28 01:10:02;;;;;;;1.27;1.17;;;14.40;99.90;;;;;;5088995;28;20646;-76
2023/08/28 01:12:38;;;;;;;2.73;1.60;;;14.40;99.90;;;;;;5088881;28;20613;-76
2023/08/28 01:15:10;;;;;;;1.90;1.50;;;14.30;99.90;;;;;;5088436;28;20623;-75
2023/08/28 01:17:40;;;;;;;1.90;1.70;;;14.30;99.90;;;;;;5089318;28;20721;-76
2023/08/28 01:20:11;;;;;;;1.90;1.80;;;14.30;99.90;;;;;;5088175;28;20632;-76
2023/08/28 01:22:44;;;;;;;1.83;1.73;;;14.20;99.90;;;;;;5089020;28;21297;-76
2023/08/28 01:25:15;;;;;;;1.93;1.70;;;14.30;99.90;;;;;;5089077;28;20631;-76
2023/08/28 01:27:43;;;;;;;1.83;1.40;;;14.30;99.90;;;;;;5087897;28;20667;-77
2023/08/28 01:30:14;;;;;;;1.47;1.37;;;14.30;99.90;;;;;;5087543;28;20639;-76
2023/08/28 01:32:44;;;;;;;1.23;1.23;;;14.30;99.90;;;;;;5089327;28;20989;-76
2023/08/28 01:35:16;;;;;;;3.63;1.63;;;14.30;99.90;;;;;;5088277;28;20765;-76
2023/08/28 01:37:57;;;;;;;1.50;1.40;;;14.30;99.90;;;;;;5088289;28;20630;-76
2023/08/28 01:40:38;;;;;;;5.57;2.10;;;14.30;99.90;;;;;;5087891;28;20733;-76
2023/08/28 01:43:11;;;;;;;1.60;1.50;;;14.20;99.90;;;;;;5089574;28;20716;-76
2023/08/28 01:45:39;;;;;;;1.80;1.53;;;14.30;99.90;;;;;;5088255;28;20628;-76
2023/08/28 01:48:08;;;;;;;1.77;1.50;;;14.30;99.90;;;;;;5087707;28;20644;-76
2023/08/28 01:50:36;;;;;;;1.77;1.67;;;14.20;99.90;;;;;;5087259;28;20662;-76
2023/08/28 01:53:04;;;;;;;2.37;1.50;;;14.30;99.90;;;;;;5087917;28;20626;-76
2023/08/28 01:56:23;;;;;;;1.53;1.40;;;14.20;99.90;;;;;;5088788;28;20621;-76
2023/08/28 01:58:53;;;;;;;3.93;2.10;;;14.20;99.90;;;;;;5088097;28;20621;-76
2023/08/28 02:01:22;;;;;;;2.07;1.97;;;14.10;99.90;;;;;;5087824;28;20613;-76
2023/08/28 02:03:50;;;;;;;2.67;1.93;;;14.10;99.90;;;;;;5086506;28;20617;-76
2023/08/28 02:06:18;;;;;;;1.50;1.40;;;14.10;99.90;;;;;;5088407;28;20621;-76
2023/08/28 02:08:46;;;;;;;2.07;1.93;;;14.10;99.90;;;;;;5088098;28;20653;-76
2023/08/28 02:11:17;;;;;;;1.50;1.40;;;14.10;99.90;;;;;;5087111;28;20784;-76
2023/08/28 02:13:44;;;;;;;1.67;1.57;;;14.20;99.90;;;;;;5087220;28;20682;-76
2023/08/28 02:16:11;;;;;;;2.27;2.10;;;14.20;99.90;;;;;;5087803;28;20620;-76
2023/08/28 02:18:39;;;;;;;2.10;2.00;;;14.10;99.90;;;;;;5087233;28;21210;-77
2023/08/28 02:21:06;;;;;;;2.10;1.83;;;14.20;99.90;;;;;;5086618;28;21249;-76
2023/08/28 02:23:32;;;;;;;1.63;1.53;;;14.20;99.90;;;;;;5087953;28;21215;-76
2023/08/28 02:25:59;;;;;;;1.87;1.77;;;14.10;99.90;;;;;;5087786;28;20626;-76
2023/08/28 02:28:28;;;;;;;2.10;1.73;;;14.10;99.90;;;;;;5087656;28;21649;-76
2023/08/28 02:30:57;;;;;;;2.40;2.20;;;14.20;99.90;;;;;;5086612;28;20628;-76
2023/08/28 02:33:24;;;;;;;2.37;2.17;;;14.10;99.90;;;;;;5087177;28;20620;-76
2023/08/28 02:35:52;;;;;;;2.03;1.83;;;14.10;99.90;;;;;;5087587;28;20751;-76
2023/08/28 02:38:19;;;;;;;1.53;1.43;;;14.00;99.90;;;;;;5087932;28;21012;-76
2023/08/28 02:40:46;;;;;;;1.83;1.73;;;14.00;99.90;;;;;;5086126;28;20723;-76
2023/08/28 02:43:14;;;;;;;1.83;1.73;;;14.00;99.90;;;;;;5087072;28;20636;-76
2023/08/28 02:45:43;;;;;;;1.53;1.30;;;14.00;99.90;;;;;;5088006;28;20656;-76
2023/08/28 02:48:11;;;;;;;1.40;1.30;;;13.90;99.90;;;;;;5086753;28;20651;-76
2023/08/28 02:50:39;;;;;;;1.40;1.30;;;13.90;99.90;;;;;;5087118;28;20656;-76
2023/08/28 02:53:06;;;;;;;1.30;1.20;;;13.80;99.90;;;;;;5086040;28;20634;-76
2023/08/28 02:55:41;;;;;;;1.90;1.80;;;13.70;99.90;;;;;;5087213;28;20631;-76
2023/08/28 02:58:10;;;;;;;2.10;1.43;;;13.70;99.90;;;;;;5086844;28;21087;-76
2023/08/28 03:00:41;;;;;;;1.37;1.27;;;13.70;99.90;;;;;;5087076;28;20624;-76
2023/08/28 03:03:11;;;;;;;3.30;1.40;;;13.70;99.90;;;;;;5085763;28;20837;-76
2023/08/28 03:05:39;;;;;;;1.53;1.10;;;13.70;99.90;;;;;;5086719;28;20620;-76
2023/08/28 03:08:06;;;;;;;1.57;1.47;;;13.70;99.90;;;;;;5086489;28;20652;-75
2023/08/28 03:10:35;;;;;;;1.37;1.27;;;13.70;99.90;;;;;;5086130;28;20628;-76
2023/08/28 03:13:04;;;;;;;2.40;1.30;;;13.70;99.90;;;;;;5087582;28;21165;-76
2023/08/28 03:15:32;;;;;;;1.13;1.03;;;13.70;99.90;;;;;;5086843;28;20629;-76
2023/08/28 03:17:59;;;;;;;1.57;1.47;;;13.60;99.90;;;;;;5087811;28;20616;-76
2023/08/28 03:20:27;;;;;;;1.67;1.57;;;13.60;99.90;;;;;;5086585;28;20623;-76
2023/08/28 03:22:56;;;;;;;1.40;1.30;;;13.60;99.90;;;;;;5086924;28;20624;-76
2023/08/28 03:25:23;;;;;;;1.83;1.73;;;13.60;99.90;;;;;;5088853;28;20798;-76
2023/08/28 03:27:50;;;;;;;3.27;1.90;;;13.60;99.90;;;;;;5090942;28;21002;-76
2023/08/28 03:30:18;;;;;;;1.60;1.50;;;13.60;99.90;;;;;;5091152;28;20677;-76
2023/08/28 03:32:45;;;;;;;1.57;1.47;;;13.60;99.90;;;;;;5090120;28;20778;-76
2023/08/28 03:35:12;;;;;;;1.53;1.20;;;13.60;99.90;;;;;;5090519;28;20632;-76
2023/08/28 03:37:40;;;;;;;1.63;1.53;;;13.60;99.90;;;;;;5091062;28;20620;-76
2023/08/28 03:40:09;;;;;;;1.50;1.40;;;13.60;99.90;;;;;;5090431;28;20714;-76
2023/08/28 03:42:36;;;;;;;2.27;1.97;;;13.50;99.90;;;;;;5090531;28;21608;-76
2023/08/28 03:45:03;;;;;;;1.43;1.20;;;13.50;99.90;;;;;;5090165;28;20643;-76
2023/08/28 03:47:30;;;;;;;1.23;1.13;;;13.50;99.90;;;;;;5090073;28;20662;-76
2023/08/28 03:49:57;;;;;;;1.60;1.47;;;13.60;99.90;;;;;;5089906;28;20639;-76
2023/08/28 03:52:23;;;;;;;2.27;1.60;;;13.50;99.90;;;;;;5091155;28;20968;-76
2023/08/28 03:54:51;;;;;;;1.50;1.40;;;13.50;99.90;;;;;;5090886;28;21289;-76
2023/08/28 03:57:18;;;;;;;1.83;1.40;;;13.60;99.90;;;;;;5091202;28;21005;-76
2023/08/28 03:59:45;;;;;;;1.50;1.40;;;13.60;99.90;;;;;;5089431;28;20616;-76
2023/08/28 04:02:12;;;;;;;1.43;1.33;;;13.70;99.90;;;;;;5089217;28;20652;-76
2023/08/28 04:04:39;;;;;;;1.60;1.50;;;13.70;99.90;;;;;;5090694;28;20636;-76
2023/08/28 04:07:06;;;;;;;1.70;1.60;;;13.80;99.90;;;;;;5090691;28;20627;-76
2023/08/28 04:09:33;;;;;;;1.60;1.50;;;13.80;99.90;;;;;;5089943;28;20656;-76
2023/08/28 04:12:01;;;;;;;2.37;1.40;;;13.70;99.90;;;;;;5089734;28;20616;-76
2023/08/28 04:14:28;;;;;;;2.43;1.97;;;13.70;99.90;;;;;;5089915;28;20620;-76
2023/08/28 04:16:55;;;;;;;2.47;1.60;;;13.60;99.90;;;;;;5090082;28;20623;-76
2023/08/28 04:19:22;;;;;;;2.77;1.60;;;13.60;99.90;;;;;;5089692;28;20620;-76
2023/08/28 04:21:48;;;;;;;1.40;1.30;;;13.60;99.90;;;;;;5090339;28;20691;-76
2023/08/28 04:24:15;;;;;;;1.67;1.57;;;13.60;99.90;;;;;;5089941;28;20628;-76
2023/08/28 04:26:42;;;;;;;1.50;1.40;;;13.60;99.90;;;;;;5089883;28;20631;-76
2023/08/28 04:29:13;;;;;;;2.97;2.00;;;13.70;99.90;;;;;;5089772;28;20742;-77
2023/08/28 04:31:40;;;;;;;1.77;1.67;;;13.70;99.90;;;;;;5090089;28;20857;-76
2023/08/28 04:34:06;;;;;;;1.80;1.70;;;13.70;99.90;;;;;;5089696;28;20635;-76
2023/08/28 04:36:33;;;;;;;1.67;1.57;;;13.70;99.90;;;;;;5088509;28;20636;-76
2023/08/28 04:39:00;;;;;;;2.23;1.90;;;13.70;99.90;;;;;;5089742;28;22404;-76
2023/08/28 04:41:27;;;;;;;1.83;1.73;;;13.60;99.90;;;;;;5089386;28;20631;-76
2023/08/28 04:43:53;;;;;;;1.70;1.60;;;13.70;99.90;;;;;;5089786;28;20615;-76
2023/08/28 04:46:22;;;;;;;2.03;1.83;;;13.70;99.90;;;;;;5089676;28;20633;-77
2023/08/28 04:48:48;;;;;;;2.00;1.90;;;13.70;99.90;;;;;;5089074;28;21158;-76
2023/08/28 04:51:15;;;;;;;1.83;1.73;;;13.60;99.90;;;;;;5089036;28;20624;-76
2023/08/28 04:53:42;;;;;;;1.20;1.20;;;13.70;99.90;;;;;;5089852;28;20723;-76
2023/08/28 04:56:09;;;;;;;2.20;2.00;;;13.70;99.90;;;;;;5088560;28;20620;-76
2023/08/28 04:58:36;;;;;;;1.40;1.30;;;13.70;99.90;;;;;;5090088;28;20617;-76
2023/08/28 05:01:02;;;;;;;1.93;1.83;;;13.80;99.90;;;;;;5088582;28;20624;-76
2023/08/28 05:03:31;;;;;;;2.33;2.13;;;13.70;99.90;;;;;;5087511;28;20624;-76
2023/08/28 05:05:57;;;;;;;2.03;1.70;;;13.70;99.90;;;;;;5089503;28;21203;-76
2023/08/28 05:08:25;;;;;;;1.80;1.70;;;13.70;99.90;;;;;;5088312;28;20698;-76
2023/08/28 05:10:51;;;;;;;1.50;1.40;;;13.70;99.90;;;;;;5088434;28;20770;-76
2023/08/28 05:13:18;;;;;;;1.60;1.50;;;13.70;99.90;;;;;;5088612;28;20621;-76
2023/08/28 05:15:45;;;;;;;4.63;1.93;;;13.70;99.90;;;;;;5089191;28;20617;-76
2023/08/28 05:18:12;;;;;;;1.70;1.60;;;13.70;99.90;;;;;;5088875;28;20615;-76
2023/08/28 05:20:40;;;;;;;1.80;1.60;;;13.70;99.90;;;;;;5088511;28;21244;-76
2023/08/28 05:23:07;;;;;;;2.27;2.17;;;13.60;99.90;;;;;;5088573;28;20632;-75
2023/08/28 05:25:34;;;;;;;1.70;1.60;;;13.60;99.90;;;;;;5089032;28;20747;-76
2023/08/28 05:28:01;;;;;;;4.63;2.20;;;13.60;99.90;;;;;;5088557;28;20870;-76
2023/08/28 05:30:28;;;;;;;1.90;1.80;;;13.50;99.90;;;;;;5088301;28;20625;-76
2023/08/28 05:32:54;;;;;;;2.23;2.03;;;13.50;99.90;;;;;;5088640;28;20682;-76
2023/08/28 05:35:21;;;;;;;1.80;1.70;;;13.50;99.90;;;;;;5088323;28;20631;-76
2023/08/28 05:37:50;;;;;;;1.53;1.43;;;13.60;99.90;;;;;;5088183;28;21415;-76
2023/08/28 05:40:17;;;;;;;1.73;1.60;;;13.50;99.90;;;;;;5087240;28;21048;-76
2023/08/28 05:42:45;;;;;;;2.23;2.13;;;13.50;99.90;;;;;;5089090;28;20623;-76
2023/08/28 05:45:12;;;;;;;1.83;1.60;;;13.40;99.90;;;;;;5088606;28;21131;-76
2023/08/28 05:47:40;;;;;;;2.43;2.23;;;13.40;99.90;;;;;;5088660;28;21010;-76
2023/08/28 05:50:08;;;;;;;2.37;1.90;;;13.40;99.90;;;;;;5087407;28;20690;-76
2023/08/28 05:52:36;;;;;;;1.77;1.67;;;13.60;99.90;;;;;;5088265;28;20634;-76
2023/08/28 05:55:05;;;;;;;2.60;2.40;;;13.50;99.90;;;;;;5088947;28;20624;-76
2023/08/28 05:57:32;;;;;;;3.57;2.27;;;13.70;99.90;;;;;;5088353;28;20633;-76
2023/08/28 05:59:59;;;;;;;2.60;2.40;;;13.60;99.90;;;;;;5088156;28;20620;-76
2023/08/28 06:02:25;;;;;;;2.30;2.20;;;13.60;99.90;;;;;;5086715;28;20622;-76
2023/08/28 06:04:52;;;;;;;3.33;3.03;;;13.70;99.90;;;;;;5087772;28;21069;-76
2023/08/28 06:07:19;;;;;;;3.23;2.30;;;13.70;99.90;;;;;;5084395;28;21217;-76
2023/08/28 06:09:46;;;;;;;2.20;2.00;;;13.70;99.90;;;;;;5086673;28;20652;-76
2023/08/28 06:12:14;;;;;;;2.40;2.20;;;13.80;99.90;;;;;;5086466;28;20738;-76
2023/08/28 06:14:41;;;;;;;2.17;1.97;;;13.80;99.90;;;;;;5086904;28;20627;-76
2023/08/28 06:17:07;;;;;;;2.70;2.50;;;13.80;99.90;;;;;;5082792;28;20632;-76
2023/08/28 06:19:34;;;;;;;3.27;3.07;;;13.70;99.90;;;;;;5086583;28;20619;-76
2023/08/28 06:22:04;;;;;;;4.07;2.73;;;13.80;99.90;;;;;;5087937;28;20968;-76
2023/08/28 06:24:31;;;;;;;2.37;2.17;;;13.80;99.90;;;;;;5087214;28;20620;-76
2023/08/28 06:26:58;;;;;;;2.67;2.47;;;13.80;99.90;;;;;;5087804;28;20631;-76
2023/08/28 06:29:26;;;;;;;2.50;2.30;;;13.90;99.90;;;;;;5086006;28;21005;-76
2023/08/28 06:31:53;;;;;;;3.30;3.00;;;13.90;99.90;;;;;;5085672;28;20620;-76
2023/08/28 06:34:20;;;;;;;3.80;2.90;;;13.90;99.90;;;;;;5084728;28;20646;-75
2023/08/28 06:36:49;;;;;;;3.50;3.20;;;14.00;99.90;;;;;;5085077;28;20642;-76
2023/08/28 06:39:16;;;;;;;5.07;3.87;;;14.00;99.90;;;;;;5083805;28;20657;-75
2023/08/28 06:41:43;;;;;;;4.50;3.80;;;14.10;99.90;;;;;;5083883;28;21049;-76
2023/08/28 06:44:10;;;;;;;5.83;3.50;;;14.10;99.90;;;;;;5085189;28;20771;-75
2023/08/28 06:46:38;;;;;;;3.90;3.60;;;14.20;99.90;;;;;;5084491;28;21262;-75
2023/08/28 06:49:05;;;;;;;3.63;3.33;;;14.40;99.90;;;;;;5084739;28;20660;-75
2023/08/28 06:51:32;;;;;;;4.40;4.00;;;14.30;99.90;;;;;;5084154;28;21371;-75
2023/08/28 06:53:58;;;;;;;4.80;4.23;;;14.30;99.90;;;;;;5084159;28;20616;-75
2023/08/28 06:56:25;;;;;;;3.77;3.43;;;14.40;99.90;;;;;;5084802;28;20650;-76
2023/08/28 06:58:52;;;;;;;4.90;4.50;;;14.40;99.90;;;;;;5083950;28;21198;-75
2023/08/28 07:01:19;;;;;;;4.67;3.50;;;14.50;99.90;;;;;;5083037;28;20639;-76
2023/08/28 07:03:47;;;;;;;4.50;4.10;;;14.40;99.90;;;;;;5083709;28;20628;-76
2023/08/28 07:06:14;;;;;;;4.80;4.40;;;14.50;99.90;;;;;;5084378;28;20620;-76
2023/08/28 07:08:40;;;;;;;4.17;3.77;;;14.40;99.90;;;;;;5083978;28;21278;-76
2023/08/28 07:11:07;;;;;;;4.60;4.20;;;14.40;99.90;;;;;;5083347;28;20635;-76
2023/08/28 07:13:34;;;;;;;3.77;2.83;;;14.40;99.90;;;;;;5084431;28;21008;-76
2023/08/28 07:16:01;;;;;;;4.70;3.33;;;14.40;99.90;;;;;;5084724;28;20624;-76
2023/08/28 07:18:28;;;;;;;3.17;2.87;;;14.30;99.90;;;;;;5083368;28;20671;-76
2023/08/28 07:20:57;;;;;;;5.50;3.67;;;14.40;99.90;;;;;;5082972;28;20628;-76
2023/08/28 07:23:24;;;;;;;4.77;4.17;;;14.30;99.90;;;;;;5083780;28;20628;-76
2023/08/28 07:25:51;;;;;;;4.13;3.73;;;14.40;99.90;;;;;;5083864;28;20701;-76
2023/08/28 07:28:20;;;;;;;5.53;3.97;;;14.50;99.90;;;;;;5083628;28;20623;-76
2023/08/28 07:30:47;;;;;;;3.90;3.60;;;14.40;99.90;;;;;;5084642;28;20620;-76
2023/08/28 07:33:14;;;;;;;4.23;3.83;;;14.30;99.90;;;;;;5085873;28;21299;-76
2023/08/28 07:35:44;;;;;;;4.87;4.47;;;14.40;99.90;;;;;;5085486;28;20624;-76
2023/08/28 07:38:13;;;;;;;4.07;3.67;;;14.30;99.90;;;;;;5085692;28;20663;-76
2023/08/28 07:40:40;;;;;;;5.13;4.63;;;14.30;99.90;;;;;;5085733;28;21111;-76
2023/08/28 07:43:07;;;;;;;6.50;4.03;;;14.40;99.90;;;;;;5086034;28;20983;-76
2023/08/28 07:45:34;;;;;;;4.70;3.70;;;14.40;99.90;;;;;;5085730;28;21381;-76
2023/08/28 07:48:00;;;;;;;5.10;3.43;;;14.40;99.90;;;;;;5085857;28;20625;-76
2023/08/28 07:50:30;;;;;;;3.80;3.50;;;14.50;99.90;;;;;;5085191;28;21226;-76
2023/08/28 07:52:56;;;;;;;12.23;4.57;;;14.50;99.90;;;;;;5086368;28;20689;-76
2023/08/28 07:55:25;;;;;;;5.50;3.40;;;14.60;99.90;;;;;;5086446;28;20629;-76
2023/08/28 07:57:52;;;;;;;4.30;3.80;;;14.70;99.90;;;;;;5086247;28;21618;-76
2023/08/28 08:00:20;;;;;;;9.20;3.60;;;14.70;99.90;;;;;;5085688;28;20617;-76
2023/08/28 08:02:48;;;;;;;4.53;3.30;;;14.60;99.90;;;;;;5085409;28;21343;-76
2023/08/28 08:05:15;;;;;;;4.20;3.80;;;14.60;99.90;;;;;;5086926;28;20640;-76
2023/08/28 08:07:42;;;;;;;5.63;3.57;;;14.70;99.90;;;;;;5086381;28;20639;-76
2023/08/28 08:10:10;;;;;;;4.10;3.33;;;14.80;99.90;;;;;;5085352;28;21240;-76
2023/08/28 08:12:39;;;;;;;3.97;3.27;;;14.60;99.90;;;;;;5090727;28;20905;-76
2023/08/28 08:15:07;;;;;;;3.17;2.93;;;14.50;99.90;;;;;;5090253;28;20620;-76
2023/08/28 08:17:35;;;;;;;2.93;2.73;;;14.70;99.90;;;;;;5089553;28;20625;-76
2023/08/28 08:20:03;;;;;;;3.30;3.00;;;14.90;99.90;;;;;;5088919;28;20979;-76
2023/08/28 08:22:30;;;;;;;3.70;3.40;;;14.90;99.90;;;;;;5089341;28;20636;-76
2023/08/28 08:24:57;;;;;;;4.57;3.37;;;15.00;99.90;;;;;;5090218;28;21583;-76
2023/08/28 08:27:25;;;;;;;3.93;3.20;;;15.10;99.90;;;;;;5086407;28;20625;-76
2023/08/28 08:29:53;;;;;;;5.73;3.40;;;15.10;99.90;;;;;;5087606;28;21240;-76
2023/08/28 08:32:20;;;;;;;4.10;3.80;;;15.10;99.90;;;;;;5090222;28;20976;-76
2023/08/28 08:34:46;;;;;;;4.17;3.77;;;15.20;99.90;;;;;;5089452;28;20637;-76
2023/08/28 08:37:14;;;;;;;3.23;2.83;;;15.10;99.90;;;;;;5089338;28;20617;-77
2023/08/28 08:39:42;;;;;;;3.10;2.80;;;15.10;99.90;;;;;;5089528;28;20755;-76
2023/08/28 08:42:09;;;;;;;4.40;3.00;;;15.20;99.90;;;;;;5089654;28;21113;-76
2023/08/28 08:44:36;;;;;;;3.40;2.40;;;15.20;99.90;;;;;;5089647;28;20627;-76
2023/08/28 08:47:05;;;;;;;2.90;2.60;;;15.30;99.90;;;;;;5088120;28;21222;-77
2023/08/28 08:49:33;;;;;;;2.43;2.03;;;15.40;99.90;;;;;;5087147;28;20652;-77
2023/08/28 08:52:05;;;;;;;2.33;2.13;;;15.40;99.90;;;;;;5088894;28;21206;-77
2023/08/28 08:54:37;;;;;;;2.27;2.03;;;15.30;99.90;;;;;;5089462;28;20637;-77
2023/08/28 08:57:11;;;;;;;2.20;2.00;;;15.40;99.90;;;;;;5089957;28;20630;-77
2023/08/28 08:59:38;;;;;;;2.50;2.30;;;15.30;99.90;;;;;;5087921;28;20620;-77
2023/08/28 09:02:08;;;;;;;2.83;2.63;;;15.20;99.90;;;;;;5087556;28;21236;-77
2023/08/28 09:04:35;;;;;;;2.33;2.13;;;15.20;99.90;;;;;;5089486;28;21575;-77
2023/08/28 09:07:05;;;;;;;3.07;2.70;;;15.20;99.90;;;;;;5088672;28;20644;-77
2023/08/28 09:09:32;;;;;;;2.57;2.37;;;15.40;99.90;;;;;;5088058;28;20798;-77
2023/08/28 09:11:59;;;;;;;2.33;2.03;;;15.40;99.90;;;;;;5088398;28;21454;-77
2023/08/28 09:14:28;;;;;;;2.40;2.20;;;15.30;99.90;;;;;;5088146;28;20621;-77
2023/08/28 09:16:55;;;;;;;2.50;2.30;;;15.30;99.90;;;;;;5088426;28;20628;-77
2023/08/28 09:19:23;;;;;;;3.70;2.33;;;15.40;99.90;;;;;;5087767;28;20620;-77
2023/08/28 09:21:50;;;;;;;3.93;2.70;;;15.40;99.90;;;;;;5089234;28;20612;-77
2023/08/28 09:24:22;;;;;;;2.50;2.30;;;15.50;99.90;;;;;;5087868;28;20616;-77
2023/08/28 09:26:52;;;;;;;2.17;1.97;;;15.50;99.90;;;;;;5089054;28;20616;-77
2023/08/28 09:29:23;;;;;;;3.30;3.00;;;15.40;99.90;;;;;;5088190;28;20653;-77
2023/08/28 09:31:49;;;;;;;2.53;2.33;;;15.40;99.90;;;;;;5089103;28;20632;-77
2023/08/28 09:34:18;;;;;;;2.60;2.40;;;15.50;99.90;;;;;;5088726;28;20620;-77
2023/08/28 09:36:47;;;;;;;3.30;2.80;;;15.50;99.90;;;;;;5089024;28;20667;-77
2023/08/28 09:39:14;;;;;;;2.50;2.33;;;15.50;99.90;;;;;;5086790;28;20626;-77
2023/08/28 09:41:47;;;;;;;2.50;2.30;;;15.50;99.90;;;;;;5088713;28;20616;-77
2023/08/28 09:44:16;;;;;;;2.60;2.40;;;15.70;99.90;;;;;;5088611;28;20621;-77
2023/08/28 09:46:43;;;;;;;2.40;2.20;;;15.70;99.90;;;;;;5088707;28;21267;-77
2023/08/28 09:49:11;;;;;;;2.47;2.27;;;15.70;99.90;;;;;;5087770;28;20644;-77
2023/08/28 09:51:42;;;;;;;2.80;2.60;;;15.80;99.90;;;;;;5087861;28;20723;-77
2023/08/28 09:54:12;;;;;;;2.57;2.30;;;15.90;99.90;;;;;;5087106;28;20723;-77
2023/08/28 09:56:40;;;;;;;2.03;1.90;;;16.00;99.90;;;;;;5088013;28;20628;-77
2023/08/28 09:59:08;;;;;;;2.00;1.80;;;16.10;99.90;;;;;;5087356;28;20635;-77
2023/08/28 10:01:36;;;;;;;2.80;2.27;;;16.30;99.90;;;;;;5087406;28;21178;-77
2023/08/28 10:04:06;;;;;;;2.67;2.47;;;16.30;99.90;;;;;;5086970;28;21227;-77
2023/08/28 10:06:35;;;;;;;2.40;2.10;;;16.40;99.90;;;;;;5088050;28;20671;-77
2023/08/28 10:09:05;;;;;;;1.60;1.50;;;16.70;99.90;;;;;;5087369;28;20639;-77
2023/08/28 10:11:37;;;;;;;2.70;2.50;;;16.70;99.90;;;;;;5088099;28;20652;-77
2023/08/28 10:14:05;;;;;;;1.97;1.80;;;16.60;99.90;;;;;;5088147;28;20655;-77
2023/08/28 10:16:36;;;;;;;2.97;2.70;;;16.80;99.90;;;;;;5087438;28;20747;-77
2023/08/28 10:19:10;;;;;;;2.47;2.27;;;16.80;99.90;;;;;;5086997;28;20778;-77
2023/08/28 10:21:39;;;;;;;3.67;2.53;;;16.80;99.90;;;;;;5088129;28;21283;-77
2023/08/28 10:24:06;;;;;;;2.60;2.40;;;16.90;99.90;;;;;;5087962;28;21184;-77
2023/08/28 10:26:36;;;;;;;3.00;2.70;;;17.20;99.90;;;;;;5087225;28;20616;-77
2023/08/28 10:29:04;;;;;;;2.70;2.50;;;17.30;99.90;;;;;;5086554;28;20621;-77
2023/08/28 10:31:31;;;;;;;3.50;2.50;;;17.30;99.90;;;;;;5086847;28;20656;-77
2023/08/28 10:33:59;;;;;;;3.60;2.03;;;17.30;99.90;;;;;;5087212;28;20628;-77
2023/08/28 10:36:27;;;;;;;2.70;2.50;;;17.20;99.90;;;;;;5088388;28;20633;-77
2023/08/28 10:38:54;;;;;;;1.83;1.73;;;16.90;99.90;;;;;;5087998;28;20623;-77
2023/08/28 10:41:22;;;;;;;2.50;2.30;;;16.90;99.90;;;;;;5086240;28;20623;-77
2023/08/28 10:43:51;;;;;;;2.33;2.07;;;17.20;99.90;;;;;;5087250;28;21271;-77
2023/08/28 10:46:19;;;;;;;2.83;2.63;;;17.40;99.90;;;;;;5087387;28;20616;-77
2023/08/28 10:48:46;;;;;;;5.63;2.40;;;17.70;99.90;;;;;;5087722;28;20623;-77
2023/08/28 10:51:14;;;;;;;1.80;1.70;;;17.80;99.90;;;;;;5086626;28;20663;-77
2023/08/28 10:53:41;;;;;;;3.17;2.37;;;17.90;99.90;;;;;;5086693;28;21280;-77
2023/08/28 10:56:07;;;;;;;2.07;1.97;;;17.90;99.90;;;;;;5086532;28;21734;-77
2023/08/28 10:58:38;;;;;;;2.67;2.47;;;18.20;99.90;;;;;;5086905;28;21189;-75
2023/08/28 11:01:14;;;;;;;3.57;2.30;;;18.30;98.90;;;;;;5087117;28;20961;-74
2023/08/28 11:03:57;;;;;;;2.27;2.03;;;18.20;99.90;;;;;;5086286;28;20631;-75
2023/08/28 11:06:43;;;;;;;2.50;2.30;;;18.30;99.30;;;;;;5087139;28;20630;-74
2023/08/28 11:09:36;;;;;;;2.53;2.10;;;18.10;99.80;;;;;;5086116;28;20650;-74
2023/08/28 11:12:24;;;;;;;2.37;2.10;;;18.00;99.40;;;;;;5087345;28;22071;-77
2023/08/28 11:15:03;;;;;;;2.70;1.87;;;17.80;99.50;;;;;;5087235;28;20621;-77
2023/08/28 11:17:34;;;;;;;1.70;1.60;;;17.70;99.90;;;;;;5087073;28;20720;-77
2023/08/28 11:20:11;;;;;;;3.10;1.73;;;17.60;99.90;;;;;;5085292;28;21408;-77
2023/08/28 11:22:39;;;;;;;1.60;1.50;;;17.50;99.80;;;;;;5087257;28;22387;-77
2023/08/28 11:25:08;;;;;;;1.73;1.60;;;17.50;99.90;;;;;;5086777;28;20624;-77
2023/08/28 11:27:43;;;;;;;1.50;1.40;;;17.40;99.90;;;;;;5086831;28;20668;-77
2023/08/28 11:30:11;;;;;;;1.70;1.60;;;17.30;99.90;;;;;;5086265;28;20686;-77
2023/08/28 11:32:41;;;;;;;1.53;1.43;;;17.10;99.90;;;;;;5087226;28;20923;-77
2023/08/28 11:35:09;;;;;;;1.70;1.60;;;17.10;99.90;;;;;;5086491;28;20621;-77
2023/08/28 11:37:39;;;;;;;1.87;1.57;;;17.10;99.90;;;;;;5086856;28;20660;-77
2023/08/28 11:40:08;;;;;;;1.50;1.40;;;17.10;99.90;;;;;;5086119;28;20967;-77
2023/08/28 11:42:35;;;;;;;1.23;1.20;;;17.10;99.90;;;;;;5086079;28;20628;-77
2023/08/28 11:45:04;;;;;;;1.63;1.53;;;17.10;99.90;;;;;;5086556;28;20623;-77
2023/08/28 11:47:32;;;;;;;2.23;1.50;;;17.10;99.90;;;;;;5090210;28;20625;-77
2023/08/28 11:50:03;;;;;;;1.63;1.33;;;17.00;99.90;;;;;;5090474;28;20707;-77
2023/08/28 11:52:30;;;;;;;1.77;1.67;;;16.90;99.90;;;;;;5090407;28;20613;-76
2023/08/28 11:55:03;;;;;;;1.60;1.50;;;16.80;99.90;;;;;;5089865;28;20989;-77
2023/08/28 11:57:31;;;;;;;1.70;1.60;;;16.80;99.90;;;;;;5090307;28;20679;-76
2023/08/28 12:00:00;;;;;;;1.57;1.47;;;16.80;99.90;;;;;;5089497;28;20620;-77
2023/08/28 12:02:27;;;;;;;1.10;1.10;;;16.50;99.50;;;;;;5090176;28;20616;-77
2023/08/28 12:04:54;;;;;;;1.60;1.50;;;16.40;99.90;;;;;;5090648;28;20628;-77
2023/08/28 12:07:24;;;;;;;1.30;1.20;;;16.40;99.90;;;;;;5089728;28;21165;-76
2023/08/28 12:09:53;;;;;;;1.47;1.37;;;16.60;99.90;;;;;;5089391;28;20624;-77
2023/08/28 12:12:20;;;;;;;1.50;1.40;;;16.40;99.50;;;;;;5090217;28;21233;-77
2023/08/28 12:14:49;;;;;;;1.80;1.70;;;16.40;99.90;;;;;;5091317;28;20620;-77
2023/08/28 12:17:17;;;;;;;4.20;1.50;;;16.40;99.90;;;;;;5090373;28;20712;-76
2023/08/28 12:19:44;;;;;;;1.70;1.60;;;16.60;99.90;;;;;;5089521;28;20630;-76
2023/08/28 12:22:13;;;;;;;1.10;1.00;;;16.50;99.90;;;;;;5090004;28;20619;-76
2023/08/28 12:24:42;;;;;;;2.43;1.77;;;16.50;99.90;;;;;;5089502;28;20633;-76
2023/08/28 12:27:10;;;;;;;0.93;0.93;;;16.50;99.90;;;;;;5090044;28;20622;-76
2023/08/28 12:29:37;;;;;;;1.40;1.30;;;16.40;99.90;;;;;;5089665;28;21218;-77
2023/08/28 12:32:06;;;;;;;1.73;1.63;;;16.40;99.90;;;;;;5090588;28;20666;-76
2023/08/28 12:34:34;;;;;;;1.27;1.20;;;16.20;99.90;;;;;;5089094;28;20640;-76
2023/08/28 12:37:06;;;;;;;1.50;1.40;;;16.20;99.90;;;;;;5089195;28;20631;-76
2023/08/28 12:39:33;;;;;;;1.20;1.20;;;16.30;99.90;;;;;;5089613;28;20620;-76
2023/08/28 12:42:02;;;;;;;3.70;1.87;;;16.20;99.90;;;;;;5090295;28;20621;-76
2023/08/28 12:44:30;;;;;;;2.93;1.30;;;16.10;99.80;;;;;;5090133;28;20624;-76
2023/08/28 12:46:57;;;;;;;1.57;1.47;;;16.10;99.90;;;;;;5088364;28;21281;-77
2023/08/28 12:49:24;;;;;;;1.80;1.50;;;16.10;99.90;;;;;;5088975;28;20841;-76
2023/08/28 12:51:51;;;;;;;1.30;1.20;;;16.10;99.90;;;;;;5089213;28;21196;-76
2023/08/28 12:54:19;;;;;;;3.30;1.80;;;16.20;99.90;;;;;;5090014;28;20719;-76